Terminal Aerodrome Forecast
Issued by NWS

Home | Current Version | Previous Version | Text Only | Print | Product List | Glossary On
Versions: 1 2 3 4 5 6 7 8 9 10 11 12 13 14 15 16 17 18 19 20 21 22 23
000
FTUS44 KLIX 171100
TAFGPT
TAF
KGPT 171124Z 1712/1812 07008KT P6SM SCT025 BKN035
      TEMPO 1712/1715 BKN025
     FM171500 08012KT P6SM BKN030
     FM180200 08011KT P6SM BKN025
     FM180600 07010KT P6SM BKN015
      TEMPO 1807/1811 4SM -SHRA=

USA.gov is the U.S. government's official web portal to all federal, state and local government web resources and services.